sensor_id;sensor_type;location;lat;lon;timestamp;temperature;humidity
3866;DHT22;1948;53.250;10.412;2022-10-26T00:01:24;10.60;99.90
3866;DHT22;1948;53.250;10.412;2022-10-26T00:03:51;10.70;99.90
3866;DHT22;1948;53.250;10.412;2022-10-26T00:06:25;10.70;99.90
3866;DHT22;1948;53.250;10.412;2022-10-26T00:08:56;10.70;99.90
3866;DHT22;1948;53.250;10.412;2022-10-26T00:11:23;10.70;99.90
3866;DHT22;1948;53.250;10.412;2022-10-26T00:13:50;10.70;99.90
3866;DHT22;1948;53.250;10.412;2022-10-26T00:16:24;10.70;99.90
3866;DHT22;1948;53.250;10.412;2022-10-26T00:18:52;10.70;99.90
3866;DHT22;1948;53.250;10.412;2022-10-26T00:21:22;10.70;99.90
3866;DHT22;1948;53.250;10.412;2022-10-26T00:23:49;10.60;99.90
3866;DHT22;1948;53.250;10.412;2022-10-26T00:26:15;10.60;99.90
3866;DHT22;1948;53.250;10.412;2022-10-26T00:28:45;10.60;99.90
3866;DHT22;1948;53.250;10.412;2022-10-26T00:31:15;10.60;99.90
3866;DHT22;1948;53.250;10.412;2022-10-26T00:33:45;10.50;99.90
3866;DHT22;1948;53.250;10.412;2022-10-26T00:36:14;10.50;99.90
3866;DHT22;1948;53.250;10.412;2022-10-26T00:38:42;10.50;99.90
3866;DHT22;1948;53.250;10.412;2022-10-26T00:41:18;10.50;99.90
3866;DHT22;1948;53.250;10.412;2022-10-26T00:43:50;10.50;99.90
3866;DHT22;1948;53.250;10.412;2022-10-26T00:49:01;10.30;99.90
3866;DHT22;1948;53.250;10.412;2022-10-26T00:51:36;10.30;99.90
3866;DHT22;1948;53.250;10.412;2022-10-26T00:54:12;10.30;99.90
3866;DHT22;1948;53.250;10.412;2022-10-26T00:56:48;10.20;99.90
3866;DHT22;1948;53.250;10.412;2022-10-26T00:59:16;10.20;99.90
3866;DHT22;1948;53.250;10.412;2022-10-26T01:01:45;10.20;99.90
3866;DHT22;1948;53.250;10.412;2022-10-26T01:04:18;10.10;99.90
3866;DHT22;1948;53.250;10.412;2022-10-26T01:06:49;10.10;99.90
3866;DHT22;1948;53.250;10.412;2022-10-26T01:09:18;10.00;99.90
3866;DHT22;1948;53.250;10.412;2022-10-26T01:11:45;9.90;99.90
3866;DHT22;1948;53.250;10.412;2022-10-26T01:14:17;9.90;99.90
3866;DHT22;1948;53.250;10.412;2022-10-26T01:17:15;9.90;99.90
3866;DHT22;1948;53.250;10.412;2022-10-26T01:28:53;9.80;99.90
3866;DHT22;1948;53.250;10.412;2022-10-26T01:31:46;9.80;99.90
3866;DHT22;1948;53.250;10.412;2022-10-26T01:34:34;9.60;99.90
3866;DHT22;1948;53.250;10.412;2022-10-26T01:37:12;9.60;99.90
3866;DHT22;1948;53.250;10.412;2022-10-26T01:39:53;9.60;99.90
3866;DHT22;1948;53.250;10.412;2022-10-26T01:42:28;9.60;99.90
3866;DHT22;1948;53.250;10.412;2022-10-26T01:45:03;9.60;99.90
3866;DHT22;1948;53.250;10.412;2022-10-26T01:47:35;9.60;99.90
3866;DHT22;1948;53.250;10.412;2022-10-26T01:50:04;9.60;99.90
3866;DHT22;1948;53.250;10.412;2022-10-26T01:52:34;9.70;99.90
3866;DHT22;1948;53.250;10.412;2022-10-26T01:55:34;9.70;99.90
3866;DHT22;1948;53.250;10.412;2022-10-26T02:07:22;9.80;99.90
3866;DHT22;1948;53.250;10.412;2022-10-26T02:12:35;9.80;99.90
3866;DHT22;1948;53.250;10.412;2022-10-26T02:15:38;9.80;99.90
3866;DHT22;1948;53.250;10.412;2022-10-26T02:20:43;9.80;99.90
3866;DHT22;1948;53.250;10.412;2022-10-26T02:23:14;9.80;99.90
3866;DHT22;1948;53.250;10.412;2022-10-26T02:25:46;9.80;99.90
3866;DHT22;1948;53.250;10.412;2022-10-26T02:28:21;9.80;99.90
3866;DHT22;1948;53.250;10.412;2022-10-26T02:30:56;9.70;99.90
3866;DHT22;1948;53.250;10.412;2022-10-26T02:33:25;9.70;99.90
3866;DHT22;1948;53.250;10.412;2022-10-26T02:35:55;9.70;99.90
3866;DHT22;1948;53.250;10.412;2022-10-26T02:38:28;9.60;99.90
3866;DHT22;1948;53.250;10.412;2022-10-26T02:41:00;9.50;99.90
3866;DHT22;1948;53.250;10.412;2022-10-26T02:43:28;9.60;99.90
3866;DHT22;1948;53.250;10.412;2022-10-26T02:46:04;9.60;99.90
3866;DHT22;1948;53.250;10.412;2022-10-26T02:48:34;9.60;99.90
3866;DHT22;1948;53.250;10.412;2022-10-26T02:53:54;9.70;99.90
3866;DHT22;1948;53.250;10.412;2022-10-26T02:56:29;9.70;99.90
3866;DHT22;1948;53.250;10.412;2022-10-26T02:59:01;9.70;99.90
3866;DHT22;1948;53.250;10.412;2022-10-26T03:01:31;9.60;99.90
3866;DHT22;1948;53.250;10.412;2022-10-26T03:03:59;9.60;99.90
3866;DHT22;1948;53.250;10.412;2022-10-26T03:06:26;9.60;99.90
3866;DHT22;1948;53.250;10.412;2022-10-26T03:08:53;9.60;99.90
3866;DHT22;1948;53.250;10.412;2022-10-26T03:11:22;9.50;99.90
3866;DHT22;1948;53.250;10.412;2022-10-26T03:13:49;9.50;99.90
3866;DHT22;1948;53.250;10.412;2022-10-26T03:16:18;9.50;99.90
3866;DHT22;1948;53.250;10.412;2022-10-26T03:18:48;9.50;99.90
3866;DHT22;1948;53.250;10.412;2022-10-26T03:21:17;9.50;99.90
3866;DHT22;1948;53.250;10.412;2022-10-26T03:23:44;9.50;99.90
3866;DHT22;1948;53.250;10.412;2022-10-26T03:26:16;9.50;99.90
3866;DHT22;1948;53.250;10.412;2022-10-26T03:28:43;9.40;99.90
3866;DHT22;1948;53.250;10.412;2022-10-26T03:31:12;9.50;99.90
3866;DHT22;1948;53.250;10.412;2022-10-26T03:33:41;9.50;99.90
3866;DHT22;1948;53.250;10.412;2022-10-26T03:36:08;9.50;99.90
3866;DHT22;1948;53.250;10.412;2022-10-26T03:38:35;9.40;99.90
3866;DHT22;1948;53.250;10.412;2022-10-26T03:41:04;9.30;99.90
3866;DHT22;1948;53.250;10.412;2022-10-26T03:43:31;9.30;99.90
3866;DHT22;1948;53.250;10.412;2022-10-26T03:46:01;9.20;99.90
3866;DHT22;1948;53.250;10.412;2022-10-26T03:48:27;9.30;99.90
3866;DHT22;1948;53.250;10.412;2022-10-26T03:50:58;9.30;99.90
3866;DHT22;1948;53.250;10.412;2022-10-26T03:53:32;9.30;99.90
3866;DHT22;1948;53.250;10.412;2022-10-26T03:56:01;9.40;99.90
3866;DHT22;1948;53.250;10.412;2022-10-26T03:58:30;9.20;99.90
3866;DHT22;1948;53.250;10.412;2022-10-26T04:01:00;9.10;99.90
3866;DHT22;1948;53.250;10.412;2022-10-26T04:03:26;9.10;99.90
3866;DHT22;1948;53.250;10.412;2022-10-26T04:05:53;9.20;99.90
3866;DHT22;1948;53.250;10.412;2022-10-26T04:08:20;9.20;99.90
3866;DHT22;1948;53.250;10.412;2022-10-26T04:10:49;9.20;99.90
3866;DHT22;1948;53.250;10.412;2022-10-26T04:13:16;9.20;99.90
3866;DHT22;1948;53.250;10.412;2022-10-26T04:15:43;9.20;99.90
3866;DHT22;1948;53.250;10.412;2022-10-26T04:18:10;9.30;99.90
3866;DHT22;1948;53.250;10.412;2022-10-26T04:20:39;9.30;99.90
3866;DHT22;1948;53.250;10.412;2022-10-26T04:23:14;9.20;99.90
3866;DHT22;1948;53.250;10.412;2022-10-26T04:25:42;9.30;99.90
3866;DHT22;1948;53.250;10.412;2022-10-26T04:28:13;9.30;99.90
3866;DHT22;1948;53.250;10.412;2022-10-26T04:30:43;9.30;99.90
3866;DHT22;1948;53.250;10.412;2022-10-26T04:33:10;9.30;99.90
3866;DHT22;1948;53.250;10.412;2022-10-26T04:35:37;9.40;99.90
3866;DHT22;1948;53.250;10.412;2022-10-26T04:38:09;9.40;99.90
3866;DHT22;1948;53.250;10.412;2022-10-26T04:40:38;9.40;99.90
3866;DHT22;1948;53.250;10.412;2022-10-26T04:43:05;9.40;99.90
3866;DHT22;1948;53.250;10.412;2022-10-26T04:45:34;9.40;99.90
3866;DHT22;1948;53.250;10.412;2022-10-26T04:48:06;9.40;99.90
3866;DHT22;1948;53.250;10.412;2022-10-26T04:50:35;9.50;99.90
3866;DHT22;1948;53.250;10.412;2022-10-26T04:53:04;9.40;99.90
3866;DHT22;1948;53.250;10.412;2022-10-26T04:55:32;9.40;99.90
3866;DHT22;1948;53.250;10.412;2022-10-26T04:58:02;9.50;99.90
3866;DHT22;1948;53.250;10.412;2022-10-26T05:00:30;9.50;99.90
3866;DHT22;1948;53.250;10.412;2022-10-26T05:03:02;9.50;99.90
3866;DHT22;1948;53.250;10.412;2022-10-26T05:05:34;9.40;99.90
3866;DHT22;1948;53.250;10.412;2022-10-26T05:08:01;9.40;99.90
3866;DHT22;1948;53.250;10.412;2022-10-26T05:10:31;9.30;99.90
3866;DHT22;1948;53.250;10.412;2022-10-26T05:12:59;9.30;99.90
3866;DHT22;1948;53.250;10.412;2022-10-26T05:15:28;9.30;99.90
3866;DHT22;1948;53.250;10.412;2022-10-26T05:18:01;9.30;99.90
3866;DHT22;1948;53.250;10.412;2022-10-26T05:20:34;9.30;99.90
3866;DHT22;1948;53.250;10.412;2022-10-26T05:23:03;9.20;99.90
3866;DHT22;1948;53.250;10.412;2022-10-26T05:25:35;9.20;99.90
3866;DHT22;1948;53.250;10.412;2022-10-26T05:28:09;9.10;99.90
3866;DHT22;1948;53.250;10.412;2022-10-26T05:30:42;9.00;99.90
3866;DHT22;1948;53.250;10.412;2022-10-26T05:33:11;9.00;99.90
3866;DHT22;1948;53.250;10.412;2022-10-26T05:35:39;8.90;99.90
3866;DHT22;1948;53.250;10.412;2022-10-26T05:38:16;8.90;99.90
3866;DHT22;1948;53.250;10.412;2022-10-26T05:40:46;8.90;99.90
3866;DHT22;1948;53.250;10.412;2022-10-26T05:43:14;9.00;99.90
3866;DHT22;1948;53.250;10.412;2022-10-26T05:45:41;9.00;99.90
3866;DHT22;1948;53.250;10.412;2022-10-26T05:48:12;9.00;99.90
3866;DHT22;1948;53.250;10.412;2022-10-26T05:50:39;9.00;99.90
3866;DHT22;1948;53.250;10.412;2022-10-26T05:53:06;9.00;99.90
3866;DHT22;1948;53.250;10.412;2022-10-26T05:55:34;8.90;99.90
3866;DHT22;1948;53.250;10.412;2022-10-26T05:58:01;8.90;99.90
3866;DHT22;1948;53.250;10.412;2022-10-26T06:00:29;8.90;99.90
3866;DHT22;1948;53.250;10.412;2022-10-26T06:03:06;8.90;99.90
3866;DHT22;1948;53.250;10.412;2022-10-26T06:05:53;8.80;99.90
3866;DHT22;1948;53.250;10.412;2022-10-26T06:08:24;8.90;99.90
3866;DHT22;1948;53.250;10.412;2022-10-26T06:10:54;8.90;99.90
3866;DHT22;1948;53.250;10.412;2022-10-26T06:13:22;9.00;99.90
3866;DHT22;1948;53.250;10.412;2022-10-26T06:30:01;8.80;99.90
3866;DHT22;1948;53.250;10.412;2022-10-26T06:32:30;8.90;99.90
3866;DHT22;1948;53.250;10.412;2022-10-26T06:37:58;9.00;99.90
3866;DHT22;1948;53.250;10.412;2022-10-26T06:40:32;9.50;99.90
3866;DHT22;1948;53.250;10.412;2022-10-26T06:43:07;10.00;99.90
3866;DHT22;1948;53.250;10.412;2022-10-26T06:45:39;10.60;99.90
3866;DHT22;1948;53.250;10.412;2022-10-26T06:48:11;11.10;99.90
3866;DHT22;1948;53.250;10.412;2022-10-26T06:50:53;11.80;99.90
3866;DHT22;1948;53.250;10.412;2022-10-26T06:53:33;12.40;99.90
3866;DHT22;1948;53.250;10.412;2022-10-26T06:56:04;13.00;99.90
3866;DHT22;1948;53.250;10.412;2022-10-26T06:58:35;13.30;99.90
3866;DHT22;1948;53.250;10.412;2022-10-26T07:01:03;14.00;99.90
3866;DHT22;1948;53.250;10.412;2022-10-26T07:03:33;14.30;99.90
3866;DHT22;1948;53.250;10.412;2022-10-26T07:06:00;14.70;99.90
3866;DHT22;1948;53.250;10.412;2022-10-26T07:08:26;15.20;99.90
3866;DHT22;1948;53.250;10.412;2022-10-26T07:10:53;15.70;99.90
3866;DHT22;1948;53.250;10.412;2022-10-26T07:13:23;16.20;99.90
3866;DHT22;1948;53.250;10.412;2022-10-26T07:15:52;16.80;99.90
3866;DHT22;1948;53.250;10.412;2022-10-26T07:18:21;17.40;99.90
3866;DHT22;1948;53.250;10.412;2022-10-26T07:20:48;17.80;99.90
3866;DHT22;1948;53.250;10.412;2022-10-26T07:23:15;18.30;99.90
3866;DHT22;1948;53.250;10.412;2022-10-26T07:25:42;18.70;99.90
3866;DHT22;1948;53.250;10.412;2022-10-26T07:28:09;19.00;99.90
3866;DHT22;1948;53.250;10.412;2022-10-26T07:30:38;19.50;99.90
3866;DHT22;1948;53.250;10.412;2022-10-26T07:33:09;19.90;99.90
3866;DHT22;1948;53.250;10.412;2022-10-26T07:35:40;20.40;99.90
3866;DHT22;1948;53.250;10.412;2022-10-26T07:38:15;20.60;99.90
3866;DHT22;1948;53.250;10.412;2022-10-26T07:40:44;20.90;99.90
3866;DHT22;1948;53.250;10.412;2022-10-26T07:43:14;21.50;99.90
3866;DHT22;1948;53.250;10.412;2022-10-26T07:45:41;22.10;99.90
3866;DHT22;1948;53.250;10.412;2022-10-26T07:48:11;22.70;99.90
3866;DHT22;1948;53.250;10.412;2022-10-26T07:50:38;22.80;99.90
3866;DHT22;1948;53.250;10.412;2022-10-26T07:53:09;22.80;99.90
3866;DHT22;1948;53.250;10.412;2022-10-26T07:55:39;23.40;99.90
3866;DHT22;1948;53.250;10.412;2022-10-26T07:58:06;23.00;99.90
3866;DHT22;1948;53.250;10.412;2022-10-26T08:00:33;22.50;99.90
3866;DHT22;1948;53.250;10.412;2022-10-26T08:03:03;22.30;99.90
3866;DHT22;1948;53.250;10.412;2022-10-26T08:05:32;21.90;99.90
3866;DHT22;1948;53.250;10.412;2022-10-26T08:08:04;22.00;99.90
3866;DHT22;1948;53.250;10.412;2022-10-26T08:10:33;21.90;99.90
3866;DHT22;1948;53.250;10.412;2022-10-26T08:13:06;22.40;99.90
3866;DHT22;1948;53.250;10.412;2022-10-26T08:15:35;23.00;99.90
3866;DHT22;1948;53.250;10.412;2022-10-26T08:18:03;23.60;99.90
3866;DHT22;1948;53.250;10.412;2022-10-26T08:20:32;24.40;99.90
3866;DHT22;1948;53.250;10.412;2022-10-26T08:22:59;24.90;99.90
3866;DHT22;1948;53.250;10.412;2022-10-26T08:25:26;25.60;99.90
3866;DHT22;1948;53.250;10.412;2022-10-26T08:27:53;26.00;99.90
3866;DHT22;1948;53.250;10.412;2022-10-26T08:30:20;26.10;99.90
3866;DHT22;1948;53.250;10.412;2022-10-26T08:32:47;26.40;99.90
3866;DHT22;1948;53.250;10.412;2022-10-26T08:35:15;26.90;99.90
3866;DHT22;1948;53.250;10.412;2022-10-26T08:37:44;27.40;99.90
3866;DHT22;1948;53.250;10.412;2022-10-26T08:40:17;27.60;99.90
3866;DHT22;1948;53.250;10.412;2022-10-26T08:42:50;28.00;99.90
3866;DHT22;1948;53.250;10.412;2022-10-26T08:48:09;28.40;99.90
3866;DHT22;1948;53.250;10.412;2022-10-26T08:56:25;29.10;99.90
3866;DHT22;1948;53.250;10.412;2022-10-26T08:59:00;29.80;99.90
3866;DHT22;1948;53.250;10.412;2022-10-26T09:01:33;30.40;99.90
3866;DHT22;1948;53.250;10.412;2022-10-26T09:04:01;30.60;99.90
3866;DHT22;1948;53.250;10.412;2022-10-26T09:06:40;31.00;99.90
3866;DHT22;1948;53.250;10.412;2022-10-26T09:18:38;32.60;97.40
3866;DHT22;1948;53.250;10.412;2022-10-26T09:24:33;32.90;95.60
3866;DHT22;1948;53.250;10.412;2022-10-26T09:27:26;33.60;94.90
3866;DHT22;1948;53.250;10.412;2022-10-26T09:29:59;33.60;94.70
3866;DHT22;1948;53.250;10.412;2022-10-26T09:32:39;33.30;93.90
3866;DHT22;1948;53.250;10.412;2022-10-26T09:35:28;33.30;93.90
3866;DHT22;1948;53.250;10.412;2022-10-26T09:38:26;33.70;93.30
3866;DHT22;1948;53.250;10.412;2022-10-26T09:43:47;34.20;92.10
3866;DHT22;1948;53.250;10.412;2022-10-26T09:46:26;33.70;91.90
3866;DHT22;1948;53.250;10.412;2022-10-26T09:49:05;33.20;92.30
3866;DHT22;1948;53.250;10.412;2022-10-26T09:51:36;33.70;91.90
3866;DHT22;1948;53.250;10.412;2022-10-26T09:54:18;33.60;91.90
3866;DHT22;1948;53.250;10.412;2022-10-26T09:56:57;33.70;92.00
3866;DHT22;1948;53.250;10.412;2022-10-26T09:59:29;34.20;91.40
3866;DHT22;1948;53.250;10.412;2022-10-26T10:01:59;34.30;91.10
3866;DHT22;1948;53.250;10.412;2022-10-26T10:04:29;34.80;90.90
3866;DHT22;1948;53.250;10.412;2022-10-26T10:09:30;35.70;90.00
3866;DHT22;1948;53.250;10.412;2022-10-26T10:12:01;36.00;88.50
3866;DHT22;1948;53.250;10.412;2022-10-26T10:14:39;35.00;88.10
3866;DHT22;1948;53.250;10.412;2022-10-26T10:17:27;34.90;88.10
3866;DHT22;1948;53.250;10.412;2022-10-26T10:20:06;35.00;87.60
3866;DHT22;1948;53.250;10.412;2022-10-26T10:23:00;35.00;87.50
3866;DHT22;1948;53.250;10.412;2022-10-26T10:25:38;35.20;86.30
3866;DHT22;1948;53.250;10.412;2022-10-26T10:28:22;35.10;86.50
3866;DHT22;1948;53.250;10.412;2022-10-26T10:30:55;34.30;87.60
3866;DHT22;1948;53.250;10.412;2022-10-26T10:36:04;33.50;89.30
3866;DHT22;1948;53.250;10.412;2022-10-26T10:38:40;33.80;88.70
3866;DHT22;1948;53.250;10.412;2022-10-26T10:43:52;34.50;88.50
3866;DHT22;1948;53.250;10.412;2022-10-26T10:46:28;35.10;87.80
3866;DHT22;1948;53.250;10.412;2022-10-26T10:49:04;35.70;86.90
3866;DHT22;1948;53.250;10.412;2022-10-26T10:51:44;36.20;85.50
3866;DHT22;1948;53.250;10.412;2022-10-26T10:54:32;36.30;84.70
3866;DHT22;1948;53.250;10.412;2022-10-26T10:57:23;36.20;83.50
3866;DHT22;1948;53.250;10.412;2022-10-26T11:00:09;34.80;84.40
3866;DHT22;1948;53.250;10.412;2022-10-26T11:14:19;35.40;85.10
3866;DHT22;1948;53.250;10.412;2022-10-26T11:16:55;34.80;84.90
3866;DHT22;1948;53.250;10.412;2022-10-26T11:19:34;34.60;86.30
3866;DHT22;1948;53.250;10.412;2022-10-26T11:22:12;35.80;85.60
3866;DHT22;1948;53.250;10.412;2022-10-26T11:24:48;36.00;84.40
3866;DHT22;1948;53.250;10.412;2022-10-26T11:30:21;36.10;83.70
3866;DHT22;1948;53.250;10.412;2022-10-26T11:32:59;35.20;84.70
3866;DHT22;1948;53.250;10.412;2022-10-26T11:38:39;36.00;83.80
3866;DHT22;1948;53.250;10.412;2022-10-26T11:41:36;36.00;83.80
3866;DHT22;1948;53.250;10.412;2022-10-26T11:46:53;33.60;86.20
3866;DHT22;1948;53.250;10.412;2022-10-26T11:49:33;33.50;86.90
3866;DHT22;1948;53.250;10.412;2022-10-26T11:55:01;32.40;89.00
3866;DHT22;1948;53.250;10.412;2022-10-26T11:57:35;33.20;89.80
3866;DHT22;1948;53.250;10.412;2022-10-26T12:00:13;33.80;88.10
3866;DHT22;1948;53.250;10.412;2022-10-26T12:03:05;35.40;86.80
3866;DHT22;1948;53.250;10.412;2022-10-26T12:08:23;35.90;84.40
3866;DHT22;1948;53.250;10.412;2022-10-26T12:13:48;36.20;84.10
3866;DHT22;1948;53.250;10.412;2022-10-26T12:16:52;36.40;83.90
3866;DHT22;1948;53.250;10.412;2022-10-26T12:19:27;36.00;83.40
3866;DHT22;1948;53.250;10.412;2022-10-26T12:21:57;35.80;82.90
3866;DHT22;1948;53.250;10.412;2022-10-26T12:27:02;37.10;81.90
3866;DHT22;1948;53.250;10.412;2022-10-26T12:29:33;37.50;81.20
3866;DHT22;1948;53.250;10.412;2022-10-26T12:35:01;37.70;79.30
3866;DHT22;1948;53.250;10.412;2022-10-26T12:37:35;36.20;80.30
3866;DHT22;1948;53.250;10.412;2022-10-26T12:48:53;34.70;84.40
3866;DHT22;1948;53.250;10.412;2022-10-26T12:56:51;33.00;84.70
3866;DHT22;1948;53.250;10.412;2022-10-26T13:08:17;31.50;90.40
3866;DHT22;1948;53.250;10.412;2022-10-26T13:11:45;31.80;90.30
3866;DHT22;1948;53.250;10.412;2022-10-26T13:14:06;32.60;89.70
3866;DHT22;1948;53.250;10.412;2022-10-26T13:16:34;31.50;90.20
3866;DHT22;1948;53.250;10.412;2022-10-26T13:19:01;30.00;91.40
3866;DHT22;1948;53.250;10.412;2022-10-26T13:21:28;28.60;93.30
3866;DHT22;1948;53.250;10.412;2022-10-26T13:23:59;27.00;96.20
3866;DHT22;1948;53.250;10.412;2022-10-26T13:26:32;25.90;99.20
3866;DHT22;1948;53.250;10.412;2022-10-26T13:29:31;25.00;99.90
3866;DHT22;1948;53.250;10.412;2022-10-26T13:32:00;24.20;99.90
3866;DHT22;1948;53.250;10.412;2022-10-26T13:34:29;23.80;99.90
3866;DHT22;1948;53.250;10.412;2022-10-26T13:39:47;23.20;99.90
3866;DHT22;1948;53.250;10.412;2022-10-26T13:42:25;23.00;99.90
3866;DHT22;1948;53.250;10.412;2022-10-26T13:44:55;22.80;99.90
3866;DHT22;1948;53.250;10.412;2022-10-26T13:50:54;22.20;99.90
3866;DHT22;1948;53.250;10.412;2022-10-26T13:53:36;21.80;99.90
3866;DHT22;1948;53.250;10.412;2022-10-26T13:56:27;21.50;99.90
3866;DHT22;1948;53.250;10.412;2022-10-26T13:59:00;21.30;99.90
3866;DHT22;1948;53.250;10.412;2022-10-26T14:01:30;21.20;99.90
3866;DHT22;1948;53.250;10.412;2022-10-26T14:03:57;21.20;99.90
3866;DHT22;1948;53.250;10.412;2022-10-26T14:06:36;21.20;99.90
3866;DHT22;1948;53.250;10.412;2022-10-26T14:09:10;21.40;99.90
3866;DHT22;1948;53.250;10.412;2022-10-26T14:11:51;21.80;99.90
3866;DHT22;1948;53.250;10.412;2022-10-26T14:14:35;22.20;99.90
3866;DHT22;1948;53.250;10.412;2022-10-26T14:17:03;23.00;99.90
3866;DHT22;1948;53.250;10.412;2022-10-26T14:19:34;23.90;99.90
3866;DHT22;1948;53.250;10.412;2022-10-26T14:22:02;24.50;99.90
3866;DHT22;1948;53.250;10.412;2022-10-26T14:24:32;24.80;99.90
3866;DHT22;1948;53.250;10.412;2022-10-26T14:27:21;24.60;99.90
3866;DHT22;1948;53.250;10.412;2022-10-26T14:29:56;23.90;99.90
3866;DHT22;1948;53.250;10.412;2022-10-26T14:32:43;23.20;99.90
3866;DHT22;1948;53.250;10.412;2022-10-26T14:35:15;22.70;99.90
3866;DHT22;1948;53.250;10.412;2022-10-26T14:37:44;22.40;99.90
3866;DHT22;1948;53.250;10.412;2022-10-26T14:40:19;22.40;99.90
3866;DHT22;1948;53.250;10.412;2022-10-26T14:42:51;22.70;99.90
3866;DHT22;1948;53.250;10.412;2022-10-26T14:48:29;23.60;99.90
3866;DHT22;1948;53.250;10.412;2022-10-26T14:51:09;23.80;99.90
3866;DHT22;1948;53.250;10.412;2022-10-26T14:53:50;24.00;99.90
3866;DHT22;1948;53.250;10.412;2022-10-26T14:56:32;23.70;99.90
3866;DHT22;1948;53.250;10.412;2022-10-26T15:04:39;23.50;99.90
3866;DHT22;1948;53.250;10.412;2022-10-26T15:12:36;23.70;99.90
3866;DHT22;1948;53.250;10.412;2022-10-26T15:17:46;23.30;99.90
3866;DHT22;1948;53.250;10.412;2022-10-26T15:20:19;23.20;99.90
3866;DHT22;1948;53.250;10.412;2022-10-26T15:22:54;22.90;99.90
3866;DHT22;1948;53.250;10.412;2022-10-26T15:25:27;22.40;99.90
3866;DHT22;1948;53.250;10.412;2022-10-26T15:33:39;20.50;99.90
3866;DHT22;1948;53.250;10.412;2022-10-26T15:38:45;19.80;99.90
3866;DHT22;1948;53.250;10.412;2022-10-26T15:41:23;19.50;99.90
3866;DHT22;1948;53.250;10.412;2022-10-26T15:43:55;19.40;99.90
3866;DHT22;1948;53.250;10.412;2022-10-26T15:46:33;19.20;99.90
3866;DHT22;1948;53.250;10.412;2022-10-26T15:49:05;19.00;99.90
3866;DHT22;1948;53.250;10.412;2022-10-26T15:51:36;18.90;99.90
3866;DHT22;1948;53.250;10.412;2022-10-26T15:54:05;18.80;99.90
3866;DHT22;1948;53.250;10.412;2022-10-26T15:56:32;18.60;99.90
3866;DHT22;1948;53.250;10.412;2022-10-26T15:59:00;18.50;99.90
3866;DHT22;1948;53.250;10.412;2022-10-26T16:01:31;18.40;99.90
3866;DHT22;1948;53.250;10.412;2022-10-26T16:03:58;18.40;99.90
3866;DHT22;1948;53.250;10.412;2022-10-26T16:06:33;18.30;99.90
3866;DHT22;1948;53.250;10.412;2022-10-26T16:09:04;18.10;99.90
3866;DHT22;1948;53.250;10.412;2022-10-26T16:11:32;18.00;99.90
3866;DHT22;1948;53.250;10.412;2022-10-26T16:14:01;17.80;99.90
3866;DHT22;1948;53.250;10.412;2022-10-26T16:16:34;17.70;99.90
3866;DHT22;1948;53.250;10.412;2022-10-26T16:19:01;17.50;99.90
3866;DHT22;1948;53.250;10.412;2022-10-26T16:21:51;17.50;99.90
3866;DHT22;1948;53.250;10.412;2022-10-26T16:24:21;17.40;99.90
3866;DHT22;1948;53.250;10.412;2022-10-26T16:26:48;17.40;99.90
3866;DHT22;1948;53.250;10.412;2022-10-26T16:29:17;17.30;99.90
3866;DHT22;1948;53.250;10.412;2022-10-26T16:31:49;17.30;99.90
3866;DHT22;1948;53.250;10.412;2022-10-26T16:34:18;17.20;99.90
3866;DHT22;1948;53.250;10.412;2022-10-26T16:36:48;17.10;99.90
3866;DHT22;1948;53.250;10.412;2022-10-26T16:39:15;17.00;99.90
3866;DHT22;1948;53.250;10.412;2022-10-26T16:41:44;16.90;99.90
3866;DHT22;1948;53.250;10.412;2022-10-26T16:44:11;16.90;99.90
3866;DHT22;1948;53.250;10.412;2022-10-26T16:46:41;16.90;99.90
3866;DHT22;1948;53.250;10.412;2022-10-26T16:49:08;16.70;99.90
3866;DHT22;1948;53.250;10.412;2022-10-26T16:51:37;16.60;99.90
3866;DHT22;1948;53.250;10.412;2022-10-26T16:54:04;16.50;99.90
3866;DHT22;1948;53.250;10.412;2022-10-26T16:56:31;16.50;99.90
3866;DHT22;1948;53.250;10.412;2022-10-26T16:58:58;16.40;99.90
3866;DHT22;1948;53.250;10.412;2022-10-26T17:01:25;16.30;99.90
3866;DHT22;1948;53.250;10.412;2022-10-26T17:03:52;16.30;99.90
3866;DHT22;1948;53.250;10.412;2022-10-26T17:06:20;16.20;99.90
3866;DHT22;1948;53.250;10.412;2022-10-26T17:08:47;16.20;99.90
3866;DHT22;1948;53.250;10.412;2022-10-26T17:11:17;16.10;99.90
3866;DHT22;1948;53.250;10.412;2022-10-26T17:13:46;16.10;99.90
3866;DHT22;1948;53.250;10.412;2022-10-26T17:16:15;16.00;99.90
3866;DHT22;1948;53.250;10.412;2022-10-26T17:18:46;16.00;99.90
3866;DHT22;1948;53.250;10.412;2022-10-26T17:21:15;15.90;99.90
3866;DHT22;1948;53.250;10.412;2022-10-26T17:23:45;15.80;99.90
3866;DHT22;1948;53.250;10.412;2022-10-26T17:26:15;15.70;99.90
3866;DHT22;1948;53.250;10.412;2022-10-26T17:28:42;15.70;99.90
3866;DHT22;1948;53.250;10.412;2022-10-26T17:31:13;15.70;99.90
3866;DHT22;1948;53.250;10.412;2022-10-26T17:33:44;15.70;99.90
3866;DHT22;1948;53.250;10.412;2022-10-26T17:36:18;15.50;99.90
3866;DHT22;1948;53.250;10.412;2022-10-26T17:38:50;15.50;99.90
3866;DHT22;1948;53.250;10.412;2022-10-26T17:41:21;15.50;99.90
3866;DHT22;1948;53.250;10.412;2022-10-26T17:43:49;15.50;99.90
3866;DHT22;1948;53.250;10.412;2022-10-26T17:46:24;15.50;99.90
3866;DHT22;1948;53.250;10.412;2022-10-26T17:48:58;15.40;99.90
3866;DHT22;1948;53.250;10.412;2022-10-26T17:51:27;15.40;99.90
3866;DHT22;1948;53.250;10.412;2022-10-26T17:53:55;15.40;99.90
3866;DHT22;1948;53.250;10.412;2022-10-26T17:56:27;15.40;99.90
3866;DHT22;1948;53.250;10.412;2022-10-26T17:58:59;15.30;99.90
3866;DHT22;1948;53.250;10.412;2022-10-26T18:01:31;15.30;99.90
3866;DHT22;1948;53.250;10.412;2022-10-26T18:04:00;15.20;99.90
3866;DHT22;1948;53.250;10.412;2022-10-26T18:06:29;15.20;99.90
3866;DHT22;1948;53.250;10.412;2022-10-26T18:08:59;15.20;99.90
3866;DHT22;1948;53.250;10.412;2022-10-26T18:11:28;15.10;99.90
3866;DHT22;1948;53.250;10.412;2022-10-26T18:14:00;15.10;99.90
3866;DHT22;1948;53.250;10.412;2022-10-26T18:16:27;15.10;99.90
3866;DHT22;1948;53.250;10.412;2022-10-26T18:18:58;15.20;99.90
3866;DHT22;1948;53.250;10.412;2022-10-26T18:21:32;15.10;99.90
3866;DHT22;1948;53.250;10.412;2022-10-26T18:24:05;15.10;99.90
3866;DHT22;1948;53.250;10.412;2022-10-26T18:26:36;15.20;99.90
3866;DHT22;1948;53.250;10.412;2022-10-26T18:29:05;15.20;99.90
3866;DHT22;1948;53.250;10.412;2022-10-26T18:31:32;15.10;99.90
3866;DHT22;1948;53.250;10.412;2022-10-26T18:34:05;15.20;99.90
3866;DHT22;1948;53.250;10.412;2022-10-26T18:36:32;15.20;99.90
3866;DHT22;1948;53.250;10.412;2022-10-26T18:39:03;15.20;99.90
3866;DHT22;1948;53.250;10.412;2022-10-26T18:41:30;15.20;99.90
3866;DHT22;1948;53.250;10.412;2022-10-26T18:43:57;15.20;99.90
3866;DHT22;1948;53.250;10.412;2022-10-26T18:46:31;15.20;99.90
3866;DHT22;1948;53.250;10.412;2022-10-26T18:49:08;15.20;99.90
3866;DHT22;1948;53.250;10.412;2022-10-26T18:51:39;15.20;99.90
3866;DHT22;1948;53.250;10.412;2022-10-26T18:54:06;15.10;99.90
3866;DHT22;1948;53.250;10.412;2022-10-26T18:56:33;15.10;99.90
3866;DHT22;1948;53.250;10.412;2022-10-26T18:59:00;15.10;99.90
3866;DHT22;1948;53.250;10.412;2022-10-26T19:01:34;15.00;99.90
3866;DHT22;1948;53.250;10.412;2022-10-26T19:04:07;15.10;99.90
3866;DHT22;1948;53.250;10.412;2022-10-26T19:06:42;15.00;99.90
3866;DHT22;1948;53.250;10.412;2022-10-26T19:09:15;15.00;99.90